Time;durP1;ratioP1;P1;durP2;ratioP2;P2;SDS_P1;SDS_P2;PMS_P1;PMS_P2;Temp;Humidity;BMP_temperature;BMP_pressure;BME280_temperature;BME280_humidity;BME280_pressure;Samples;Min_cycle;Max_cycle;Signal;HPM_P1;HPM_P2
2023/05/14 00:02:39;;;;;;;8.93;6.80;;;;;;;;;;6210149;28;20039;-78
2023/05/14 00:05:40;;;;;;;8.38;6.38;;;;;;;;;;6208230;28;20132;-80
2023/05/14 00:08:42;;;;;;;7.68;6.47;;;;;;;;;;6209486;28;20489;-80
2023/05/14 00:11:44;;;;;;;9.38;7.03;;;;;;;;;;6210040;28;20045;-78
2023/05/14 00:14:46;;;;;;;7.75;6.80;;;;;;;;;;6204894;28;20057;-79
2023/05/14 00:17:47;;;;;;;9.38;6.78;;;;;;;;;;6217330;28;20642;-79
2023/05/14 00:20:53;;;;;;;8.75;7.07;;;;;;;;;;6212607;28;20055;-78
2023/05/14 00:23:55;;;;;;;10.80;8.13;;;;;;;;;;6209829;28;20042;-78
2023/05/14 00:26:56;;;;;;;12.73;8.13;;;;;;;;;;6202420;28;20073;-79
2023/05/14 00:29:58;;;;;;;10.07;7.25;;;;;;;;;;6212020;28;20501;-78
2023/05/14 00:33:00;;;;;;;8.63;6.63;;;;;;;;;;6202581;28;20042;-79
2023/05/14 00:36:02;;;;;;;9.77;6.10;;;;;;;;;;6186378;28;20050;-79
2023/05/14 00:39:04;;;;;;;9.10;7.25;;;;;;;;;;6201339;28;20082;-78
2023/05/14 00:42:06;;;;;;;9.73;7.88;;;;;;;;;;6204986;28;20157;-78
2023/05/14 00:45:08;;;;;;;13.27;7.65;;;;;;;;;;6194887;28;20073;-79
2023/05/14 00:48:09;;;;;;;9.02;7.32;;;;;;;;;;6208953;28;20627;-79
2023/05/14 00:51:11;;;;;;;9.18;7.22;;;;;;;;;;6205883;28;20129;-79
2023/05/14 00:54:14;;;;;;;12.80;6.82;;;;;;;;;;6207008;28;20042;-79
2023/05/14 00:57:17;;;;;;;11.50;7.32;;;;;;;;;;6209833;28;20045;-78
2023/05/14 01:00:19;;;;;;;9.27;7.13;;;;;;;;;;6206865;28;20129;-80
2023/05/14 01:03:21;;;;;;;9.35;6.57;;;;;;;;;;6208662;28;20416;-79
2023/05/14 01:06:31;;;;;;;9.38;7.47;;;;;;;;;;6207247;28;20129;-79
2023/05/14 01:09:35;;;;;;;10.35;6.80;;;;;;;;;;6200067;28;20516;-78
2023/05/14 01:12:55;;;;;;;9.32;6.90;;;;;;;;;;6228232;28;20052;-78
2023/05/14 01:15:59;;;;;;;11.63;7.38;;;;;;;;;;6217391;28;20045;-80
2023/05/14 01:19:04;;;;;;;9.65;6.85;;;;;;;;;;6209183;28;23207;-80
2023/05/14 01:22:06;;;;;;;8.00;6.72;;;;;;;;;;6199365;28;20054;-79
2023/05/14 01:25:08;;;;;;;8.88;6.90;;;;;;;;;;6200036;28;20048;-80
2023/05/14 01:28:26;;;;;;;10.75;7.43;;;;;;;;;;6203861;28;20045;-79
2023/05/14 01:31:32;;;;;;;9.15;7.00;;;;;;;;;;6186185;28;20054;-79
2023/05/14 01:34:35;;;;;;;7.75;6.63;;;;;;;;;;6204472;28;20092;-79
2023/05/14 01:37:38;;;;;;;8.63;6.30;;;;;;;;;;6206334;28;20041;-80
2023/05/14 01:40:41;;;;;;;8.57;6.53;;;;;;;;;;6208239;28;20045;-79
2023/05/14 01:43:44;;;;;;;10.75;6.78;;;;;;;;;;6213718;28;20512;-79
2023/05/14 01:46:45;;;;;;;11.50;6.83;;;;;;;;;;6202085;28;20424;-79
2023/05/14 01:49:47;;;;;;;10.15;7.03;;;;;;;;;;6206680;28;20085;-78
2023/05/14 01:52:52;;;;;;;10.18;7.22;;;;;;;;;;6207934;28;20053;-80
2023/05/14 01:55:54;;;;;;;9.15;6.82;;;;;;;;;;6190576;28;20125;-79
2023/05/14 01:58:56;;;;;;;10.40;6.80;;;;;;;;;;6206348;28;20129;-79
2023/05/14 02:01:57;;;;;;;13.45;6.97;;;;;;;;;;6202326;28;20042;-79
2023/05/14 02:04:59;;;;;;;9.10;6.72;;;;;;;;;;6206005;28;20038;-79
2023/05/14 02:08:01;;;;;;;9.25;7.05;;;;;;;;;;6209368;28;20046;-79
2023/05/14 02:11:02;;;;;;;10.40;6.78;;;;;;;;;;6216493;28;20044;-78
2023/05/14 02:14:04;;;;;;;9.43;7.22;;;;;;;;;;6194080;28;20051;-78
2023/05/14 02:17:06;;;;;;;9.52;7.25;;;;;;;;;;6207379;28;20038;-78
2023/05/14 02:20:09;;;;;;;10.82;6.47;;;;;;;;;;6213144;28;20041;-79
2023/05/14 02:23:10;;;;;;;8.80;6.53;;;;;;;;;;6216895;28;20053;-79
2023/05/14 02:26:12;;;;;;;10.27;7.25;;;;;;;;;;6193486;28;20038;-80
2023/05/14 02:29:13;;;;;;;8.77;7.43;;;;;;;;;;6210929;28;20041;-79
2023/05/14 02:32:15;;;;;;;13.77;9.05;;;;;;;;;;6208143;28;20045;-78
2023/05/14 02:35:17;;;;;;;14.52;8.60;;;;;;;;;;6206447;28;20501;-78
2023/05/14 02:38:19;;;;;;;15.63;9.38;;;;;;;;;;6197282;28;20030;-79
2023/05/14 02:41:20;;;;;;;15.18;9.63;;;;;;;;;;6202577;28;20043;-79
2023/05/14 02:44:22;;;;;;;13.68;8.85;;;;;;;;;;6215029;28;20054;-79
2023/05/14 02:47:23;;;;;;;13.23;9.32;;;;;;;;;;6192084;28;20045;-79
2023/05/14 02:50:25;;;;;;;14.55;9.25;;;;;;;;;;6205244;28;20050;-79
2023/05/14 02:53:27;;;;;;;14.18;9.13;;;;;;;;;;6209594;28;20057;-79
2023/05/14 02:56:28;;;;;;;15.25;9.10;;;;;;;;;;6207723;28;20040;-79
2023/05/14 02:59:30;;;;;;;11.50;8.50;;;;;;;;;;6211397;28;20049;-79
2023/05/14 03:02:33;;;;;;;12.90;8.35;;;;;;;;;;6212378;28;20052;-79
2023/05/14 03:05:35;;;;;;;15.18;9.63;;;;;;;;;;6205583;28;20065;-80
2023/05/14 03:08:37;;;;;;;20.25;9.88;;;;;;;;;;6218186;28;20130;-80
2023/05/14 03:11:39;;;;;;;20.08;10.55;;;;;;;;;;6209910;28;20042;-80
2023/05/14 03:14:40;;;;;;;16.98;10.07;;;;;;;;;;6213000;28;20045;-80
2023/05/14 03:17:42;;;;;;;12.65;9.65;;;;;;;;;;6197931;28;20050;-80
2023/05/14 03:20:43;;;;;;;14.07;9.23;;;;;;;;;;6207987;28;20049;-79
2023/05/14 03:23:45;;;;;;;13.73;8.60;;;;;;;;;;6207544;28;20073;-78
2023/05/14 03:26:47;;;;;;;14.43;9.30;;;;;;;;;;6207087;28;20037;-79
2023/05/14 03:29:48;;;;;;;25.15;9.30;;;;;;;;;;6215378;28;20060;-79
2023/05/14 03:32:50;;;;;;;15.82;8.57;;;;;;;;;;6207496;28;20141;-79
2023/05/14 03:35:52;;;;;;;14.93;8.73;;;;;;;;;;6210273;28;20632;-79
2023/05/14 03:38:54;;;;;;;17.10;8.90;;;;;;;;;;6203545;28;20421;-79
2023/05/14 03:41:57;;;;;;;16.25;8.95;;;;;;;;;;6218821;28;20061;-78
2023/05/14 03:44:59;;;;;;;16.75;9.18;;;;;;;;;;6209500;28;20104;-79
2023/05/14 03:48:01;;;;;;;15.45;8.98;;;;;;;;;;6192300;28;20042;-79
2023/05/14 03:51:04;;;;;;;15.85;9.07;;;;;;;;;;6202106;28;20042;-79
2023/05/14 03:54:05;;;;;;;12.93;8.80;;;;;;;;;;6206367;28;20148;-78
2023/05/14 03:57:07;;;;;;;14.57;8.88;;;;;;;;;;6183249;28;20069;-79
2023/05/14 04:00:09;;;;;;;14.65;9.05;;;;;;;;;;6189576;28;20145;-79
2023/05/14 04:03:20;;;;;;;14.23;9.55;;;;;;;;;;6213317;28;20049;-79
2023/05/14 04:06:22;;;;;;;14.02;8.27;;;;;;;;;;6207755;28;20045;-79
2023/05/14 04:09:24;;;;;;;12.75;8.27;;;;;;;;;;6199539;28;20049;-78
2023/05/14 04:12:25;;;;;;;13.75;7.88;;;;;;;;;;6222532;28;20089;-79
2023/05/14 04:15:28;;;;;;;13.77;8.38;;;;;;;;;;6207158;28;20519;-78
2023/05/14 04:18:33;;;;;;;15.68;8.52;;;;;;;;;;6202210;28;20118;-78
2023/05/14 04:21:35;;;;;;;12.93;8.68;;;;;;;;;;6216231;28;20064;-79
2023/05/14 04:24:36;;;;;;;14.27;8.43;;;;;;;;;;6217820;28;20049;-78
2023/05/14 04:27:38;;;;;;;14.60;8.82;;;;;;;;;;6208435;28;20046;-79
2023/05/14 04:30:40;;;;;;;12.77;8.18;;;;;;;;;;6207936;28;20052;-78
2023/05/14 04:33:42;;;;;;;13.25;9.00;;;;;;;;;;6206399;28;20045;-79
2023/05/14 04:36:43;;;;;;;13.45;9.18;;;;;;;;;;6204225;28;20049;-78
2023/05/14 04:39:46;;;;;;;16.63;8.93;;;;;;;;;;6201307;28;20042;-78
2023/05/14 04:42:48;;;;;;;13.82;9.43;;;;;;;;;;6211417;28;20048;-78
2023/05/14 04:45:51;;;;;;;14.70;8.70;;;;;;;;;;6208044;28;21511;-78
2023/05/14 04:48:52;;;;;;;11.98;8.02;;;;;;;;;;6208600;28;20050;-78
2023/05/14 04:51:54;;;;;;;12.55;8.23;;;;;;;;;;6206411;28;20053;-77
2023/05/14 04:54:56;;;;;;;10.52;7.93;;;;;;;;;;6224583;28;20129;-78
2023/05/14 04:57:57;;;;;;;11.90;8.05;;;;;;;;;;6206907;28;20491;-78
2023/05/14 05:00:59;;;;;;;11.90;8.45;;;;;;;;;;6212358;28;20042;-78
2023/05/14 05:04:01;;;;;;;12.35;8.10;;;;;;;;;;6207289;28;20053;-78
2023/05/14 05:07:02;;;;;;;11.40;8.30;;;;;;;;;;6212516;28;20524;-78
2023/05/14 05:10:05;;;;;;;13.82;8.70;;;;;;;;;;6215272;28;20339;-77
2023/05/14 05:13:06;;;;;;;13.10;8.38;;;;;;;;;;6223594;28;20153;-78
2023/05/14 05:16:08;;;;;;;13.45;8.43;;;;;;;;;;6203650;28;20057;-77
2023/05/14 05:19:09;;;;;;;11.65;8.07;;;;;;;;;;6214534;28;20162;-79
2023/05/14 05:22:11;;;;;;;13.00;7.93;;;;;;;;;;6205946;28;20539;-78
2023/05/14 05:25:13;;;;;;;12.98;8.10;;;;;;;;;;6207116;28;20042;-79
2023/05/14 05:28:14;;;;;;;11.75;8.20;;;;;;;;;;6204323;28;20041;-79
2023/05/14 05:31:16;;;;;;;11.60;8.40;;;;;;;;;;6197583;28;20057;-78
2023/05/14 05:34:20;;;;;;;12.43;8.95;;;;;;;;;;6203289;28;20520;-79
2023/05/14 05:37:22;;;;;;;10.93;8.02;;;;;;;;;;6205257;28;20315;-78
2023/05/14 05:40:23;;;;;;;11.70;8.95;;;;;;;;;;6204417;28;20046;-79
2023/05/14 05:43:27;;;;;;;11.60;8.93;;;;;;;;;;6194391;28;20058;-77
2023/05/14 05:46:28;;;;;;;;;;;;;;;;;;6176887;28;20474;-79
2023/05/14 05:49:30;;;;;;;10.32;8.02;;;;;;;;;;6177977;28;19922;-79
2023/05/14 05:52:32;;;;;;;11.60;9.10;;;;;;;;;;6190851;28;20073;-80
2023/05/14 05:55:33;;;;;;;11.77;8.27;;;;;;;;;;6201839;28;20420;-80
2023/05/14 05:58:35;;;;;;;12.65;9.27;;;;;;;;;;6203695;28;20467;-80
2023/05/14 06:01:39;;;;;;;11.32;8.77;;;;;;;;;;6187909;28;20423;-79
2023/05/14 06:04:41;;;;;;;11.50;8.70;;;;;;;;;;6201780;28;20078;-79
2023/05/14 06:07:42;;;;;;;11.80;7.97;;;;;;;;;;6199178;28;20539;-80
2023/05/14 06:10:45;;;;;;;12.82;7.97;;;;;;;;;;6209284;28;20046;-80
2023/05/14 06:13:49;;;;;;;12.82;9.02;;;;;;;;;;6181147;28;20173;-78
2023/05/14 06:16:53;;;;;;;12.02;8.88;;;;;;;;;;6205979;28;20785;-80
2023/05/14 06:20:00;;;;;;;10.20;8.60;;;;;;;;;;6204297;28;20053;-81
2023/05/14 06:23:03;;;;;;;11.13;8.65;;;;;;;;;;6207704;28;20046;-81
2023/05/14 06:26:05;;;;;;;11.82;8.77;;;;;;;;;;6204787;28;20050;-78
2023/05/14 06:29:06;;;;;;;11.90;8.70;;;;;;;;;;6204702;28;20050;-79
2023/05/14 06:32:09;;;;;;;10.50;8.20;;;;;;;;;;6198930;28;20132;-79
2023/05/14 06:35:10;;;;;;;8.98;7.25;;;;;;;;;;6204385;28;20042;-79
2023/05/14 06:38:12;;;;;;;9.13;7.45;;;;;;;;;;6207148;28;20038;-79
2023/05/14 06:41:13;;;;;;;11.68;7.88;;;;;;;;;;6206529;28;20043;-77
2023/05/14 06:44:17;;;;;;;8.05;7.25;;;;;;;;;;6197329;28;20046;-78
2023/05/14 06:47:19;;;;;;;10.48;7.40;;;;;;;;;;6199184;28;20045;-78
2023/05/14 06:50:21;;;;;;;8.55;6.88;;;;;;;;;;6191575;28;20042;-78
2023/05/14 06:53:23;;;;;;;7.93;6.38;;;;;;;;;;6207102;28;20743;-78
2023/05/14 06:56:24;;;;;;;7.03;6.18;;;;;;;;;;6198421;28;20050;-78
2023/05/14 06:59:26;;;;;;;10.25;6.45;;;;;;;;;;6193411;28;20046;-78
2023/05/14 07:02:28;;;;;;;8.40;6.63;;;;;;;;;;6199021;28;20173;-78
2023/05/14 07:05:29;;;;;;;9.38;6.50;;;;;;;;;;6210994;28;20104;-78
2023/05/14 07:08:31;;;;;;;8.32;6.18;;;;;;;;;;6204059;28;20061;-78
2023/05/14 07:11:33;;;;;;;6.32;5.68;;;;;;;;;;6200759;28;20042;-78
2023/05/14 07:14:34;;;;;;;8.23;5.80;;;;;;;;;;6201291;28;20042;-78
2023/05/14 07:17:36;;;;;;;5.93;5.32;;;;;;;;;;6200318;28;20068;-78
2023/05/14 07:20:38;;;;;;;6.10;5.50;;;;;;;;;;6208415;28;20585;-78
2023/05/14 07:23:40;;;;;;;5.75;5.15;;;;;;;;;;6203438;28;20043;-78
2023/05/14 07:26:41;;;;;;;6.72;4.88;;;;;;;;;;6203415;28;21336;-78
2023/05/14 07:29:43;;;;;;;6.03;5.43;;;;;;;;;;6212137;28;20050;-77
2023/05/14 07:32:44;;;;;;;5.68;4.68;;;;;;;;;;6206456;28;20042;-78
2023/05/14 07:35:46;;;;;;;5.13;4.47;;;;;;;;;;6199389;28;20042;-78
2023/05/14 07:38:48;;;;;;;5.50;4.60;;;;;;;;;;6198648;28;20046;-75
2023/05/14 07:41:50;;;;;;;10.00;5.35;;;;;;;;;;6199400;28;20049;-75
2023/05/14 07:44:51;;;;;;;6.65;5.20;;;;;;;;;;6199527;28;20064;-74
2023/05/14 07:47:53;;;;;;;55.72;16.58;;;;;;;;;;6204434;28;20046;-74
2023/05/14 07:50:55;;;;;;;28.90;11.40;;;;;;;;;;6206527;28;20237;-75
2023/05/14 07:53:57;;;;;;;13.93;6.30;;;;;;;;;;6200492;28;20046;-76
2023/05/14 07:56:58;;;;;;;6.80;4.82;;;;;;;;;;6199866;28;20039;-76
2023/05/14 08:00:00;;;;;;;6.35;4.50;;;;;;;;;;6200873;28;20671;-75
2023/05/14 08:03:01;;;;;;;7.25;5.00;;;;;;;;;;6197335;28;20041;-76
2023/05/14 08:06:04;;;;;;;5.22;4.20;;;;;;;;;;6199435;28;20050;-76
2023/05/14 08:09:05;;;;;;;5.47;4.57;;;;;;;;;;6197115;28;20049;-76
2023/05/14 08:12:07;;;;;;;5.22;4.10;;;;;;;;;;6205442;28;20415;-76
2023/05/14 08:15:09;;;;;;;4.07;3.70;;;;;;;;;;6204725;28;20053;-76
2023/05/14 08:18:11;;;;;;;4.43;3.60;;;;;;;;;;6200112;28;20064;-75
2023/05/14 08:21:13;;;;;;;4.90;3.55;;;;;;;;;;6201486;28;20042;-76
2023/05/14 08:24:14;;;;;;;4.25;3.50;;;;;;;;;;6207325;28;20060;-76
2023/05/14 08:27:16;;;;;;;5.35;4.00;;;;;;;;;;6199832;28;20054;-77
2023/05/14 08:30:18;;;;;;;4.25;3.40;;;;;;;;;;6202938;28;20061;-76
2023/05/14 08:33:19;;;;;;;4.70;3.65;;;;;;;;;;6196887;28;20042;-77
2023/05/14 08:36:21;;;;;;;3.10;2.80;;;;;;;;;;6198011;28;20049;-75
2023/05/14 08:39:23;;;;;;;3.15;2.70;;;;;;;;;;6205694;28;20042;-75
2023/05/14 08:42:27;;;;;;;4.87;3.07;;;;;;;;;;6207556;28;20058;-76
2023/05/14 08:45:32;;;;;;;2.80;2.53;;;;;;;;;;6204832;28;20038;-75
2023/05/14 08:48:36;;;;;;;5.38;2.95;;;;;;;;;;6202134;28;20046;-76
2023/05/14 08:51:39;;;;;;;5.32;3.15;;;;;;;;;;6191549;28;20778;-73
2023/05/14 08:54:40;;;;;;;5.90;3.40;;;;;;;;;;6204042;28;20050;-74
2023/05/14 08:57:42;;;;;;;3.25;2.47;;;;;;;;;;6197997;28;20038;-77
2023/05/14 09:00:44;;;;;;;3.63;2.40;;;;;;;;;;6176902;28;20042;-77
2023/05/14 09:03:46;;;;;;;2.72;2.40;;;;;;;;;;6203799;28;20069;-77
2023/05/14 09:06:50;;;;;;;4.18;2.10;;;;;;;;;;6208609;28;20042;-77
2023/05/14 09:09:52;;;;;;;3.55;2.20;;;;;;;;;;6194055;28;20052;-77
2023/05/14 09:12:54;;;;;;;2.92;2.13;;;;;;;;;;6204954;28;20089;-77
2023/05/14 09:15:56;;;;;;;2.10;1.90;;;;;;;;;;6226838;28;20050;-77
2023/05/14 09:18:57;;;;;;;2.17;2.08;;;;;;;;;;6200275;28;20049;-77
2023/05/14 09:21:59;;;;;;;2.45;2.20;;;;;;;;;;6182182;28;20046;-77
2023/05/14 09:25:08;;;;;;;2.03;1.85;;;;;;;;;;6202321;28;20046;-77
2023/05/14 09:28:09;;;;;;;2.00;1.83;;;;;;;;;;6201653;28;20511;-77
2023/05/14 09:31:11;;;;;;;2.28;2.08;;;;;;;;;;6194800;28;20030;-77
2023/05/14 09:34:23;;;;;;;2.20;2.00;;;;;;;;;;6204865;28;20130;-77
2023/05/14 09:37:27;;;;;;;2.08;1.90;;;;;;;;;;6199954;28;20045;-76
2023/05/14 09:40:28;;;;;;;2.72;2.10;;;;;;;;;;6200493;28;20049;-78
2023/05/14 09:43:30;;;;;;;2.60;1.80;;;;;;;;;;6197818;28;20161;-77
2023/05/14 09:46:32;;;;;;;2.42;2.17;;;;;;;;;;6197018;28;20049;-77
2023/05/14 09:49:34;;;;;;;2.15;1.80;;;;;;;;;;6197344;28;20069;-76
2023/05/14 09:52:36;;;;;;;2.08;1.90;;;;;;;;;;6196325;28;20117;-76
2023/05/14 09:55:38;;;;;;;2.20;2.00;;;;;;;;;;6209977;28;20416;-78
2023/05/14 09:58:40;;;;;;;3.03;2.10;;;;;;;;;;6184586;28;20042;-76
2023/05/14 10:01:43;;;;;;;2.80;1.90;;;;;;;;;;6189051;28;20603;-77
2023/05/14 10:04:45;;;;;;;1.90;1.80;;;;;;;;;;6197897;28;20050;-79
2023/05/14 10:07:49;;;;;;;2.65;1.67;;;;;;;;;;6219241;28;20038;-78
2023/05/14 10:10:53;;;;;;;2.30;1.80;;;;;;;;;;6204483;28;20062;-77
2023/05/14 10:14:01;;;;;;;2.30;1.88;;;;;;;;;;6198419;28;20046;-77
2023/05/14 10:17:04;;;;;;;2.08;1.88;;;;;;;;;;6199178;28;21809;-76
2023/05/14 10:20:08;;;;;;;2.25;1.92;;;;;;;;;;6198819;28;20136;-77
2023/05/14 10:23:10;;;;;;;2.42;1.95;;;;;;;;;;6181706;28;20082;-77
2023/05/14 10:26:12;;;;;;;2.47;2.00;;;;;;;;;;6197198;28;20133;-77
2023/05/14 10:29:14;;;;;;;2.23;1.90;;;;;;;;;;6194642;28;20053;-77
2023/05/14 10:32:19;;;;;;;2.80;2.22;;;;;;;;;;6212793;28;20053;-77
2023/05/14 10:35:24;;;;;;;2.92;2.17;;;;;;;;;;6207042;28;20496;-78
2023/05/14 10:38:28;;;;;;;2.33;1.90;;;;;;;;;;6165171;28;20045;-77
2023/05/14 10:41:32;;;;;;;2.30;2.10;;;;;;;;;;6196272;28;20050;-77
2023/05/14 10:44:34;;;;;;;1.90;1.80;;;;;;;;;;6193844;28;20042;-76
2023/05/14 10:47:38;;;;;;;2.40;2.20;;;;;;;;;;6195524;28;20053;-78
2023/05/14 10:50:40;;;;;;;2.50;2.30;;;;;;;;;;6176526;28;20074;-78
2023/05/14 10:53:42;;;;;;;2.33;1.85;;;;;;;;;;6204822;28;20045;-76
2023/05/14 10:56:48;;;;;;;3.00;2.80;;;;;;;;;;6205100;28;20042;-77
2023/05/14 10:59:55;;;;;;;2.72;2.30;;;;;;;;;;6202729;28;20066;-77
2023/05/14 11:02:57;;;;;;;2.42;2.10;;;;;;;;;;6195903;28;20426;-77
2023/05/14 11:06:02;;;;;;;2.38;2.17;;;;;;;;;;6198137;28;20562;-77
2023/05/14 11:09:05;;;;;;;2.28;2.08;;;;;;;;;;6179549;28;20049;-77
2023/05/14 11:12:07;;;;;;;2.97;2.00;;;;;;;;;;6195064;28;20076;-77
2023/05/14 11:15:11;;;;;;;2.50;2.30;;;;;;;;;;6199636;28;20443;-77
2023/05/14 11:18:12;;;;;;;2.50;2.30;;;;;;;;;;6193272;28;20046;-77
2023/05/14 11:21:16;;;;;;;3.00;2.13;;;;;;;;;;6198500;28;20045;-77
2023/05/14 11:24:17;;;;;;;2.67;2.38;;;;;;;;;;6199841;28;20058;-77
2023/05/14 11:27:21;;;;;;;2.53;2.33;;;;;;;;;;6184289;28;20053;-77
2023/05/14 11:30:23;;;;;;;2.72;2.47;;;;;;;;;;6198250;28;20479;-76
2023/05/14 11:33:26;;;;;;;2.72;2.00;;;;;;;;;;6178119;28;20058;-75
2023/05/14 11:36:28;;;;;;;2.50;2.13;;;;;;;;;;6197723;28;20897;-77
2023/05/14 11:39:31;;;;;;;2.85;2.40;;;;;;;;;;6192056;28;20046;-76
2023/05/14 11:42:33;;;;;;;2.50;2.30;;;;;;;;;;6196338;28;20129;-76
2023/05/14 11:45:35;;;;;;;1.95;1.85;;;;;;;;;;6205904;28;20042;-77
2023/05/14 11:48:37;;;;;;;2.42;2.22;;;;;;;;;;6187802;28;20034;-78
2023/05/14 11:51:38;;;;;;;2.35;2.15;;;;;;;;;;6212697;28;20048;-78
2023/05/14 11:54:42;;;;;;;2.25;2.08;;;;;;;;;;6204613;28;20041;-78
2023/05/14 11:57:44;;;;;;;2.45;2.25;;;;;;;;;;6195992;28;20042;-77
2023/05/14 12:00:49;;;;;;;2.47;2.27;;;;;;;;;;6202726;28;20133;-76
2023/05/14 12:03:50;;;;;;;2.65;2.13;;;;;;;;;;6200953;28;20057;-76
2023/05/14 12:06:52;;;;;;;2.63;2.43;;;;;;;;;;6185003;28;20496;-78
2023/05/14 12:09:59;;;;;;;2.97;2.22;;;;;;;;;;6203249;28;20153;-78
2023/05/14 12:13:05;;;;;;;2.13;1.92;;;;;;;;;;6203129;28;20201;-76
2023/05/14 12:16:07;;;;;;;2.35;2.15;;;;;;;;;;6195947;28;20053;-77
2023/05/14 12:19:12;;;;;;;3.28;2.33;;;;;;;;;;6200222;28;20073;-78
2023/05/14 12:22:19;;;;;;;2.88;2.20;;;;;;;;;;6200476;28;20091;-78
2023/05/14 12:25:21;;;;;;;2.35;2.15;;;;;;;;;;6202883;28;20661;-77
2023/05/14 12:28:22;;;;;;;1.95;1.85;;;;;;;;;;6196863;28;20396;-79
2023/05/14 12:31:29;;;;;;;2.55;2.35;;;;;;;;;;6204343;28;20175;-77
2023/05/14 12:34:30;;;;;;;2.58;2.38;;;;;;;;;;6202591;28;20041;-79
2023/05/14 12:37:32;;;;;;;2.97;2.33;;;;;;;;;;6204280;28;20042;-79
2023/05/14 12:40:35;;;;;;;3.57;2.50;;;;;;;;;;6201548;28;20129;-77
2023/05/14 12:43:36;;;;;;;2.60;2.40;;;;;;;;;;6198458;28;20450;-77
2023/05/14 12:46:38;;;;;;;2.65;2.13;;;;;;;;;;6177492;28;20046;-77
2023/05/14 12:49:40;;;;;;;2.38;2.17;;;;;;;;;;6178451;28;20413;-78
2023/05/14 12:52:41;;;;;;;3.25;2.35;;;;;;;;;;6200349;28;20034;-77
2023/05/14 12:55:43;;;;;;;2.97;2.22;;;;;;;;;;6203213;28;20042;-79
2023/05/14 12:58:47;;;;;;;2.47;2.00;;;;;;;;;;6200960;28;20049;-76
2023/05/14 13:01:49;;;;;;;2.60;2.20;;;;;;;;;;6179112;28;20038;-78
2023/05/14 13:04:51;;;;;;;2.88;2.45;;;;;;;;;;6199992;28;20057;-78
2023/05/14 13:07:53;;;;;;;2.20;2.00;;;;;;;;;;6197866;28;20046;-77
2023/05/14 13:10:55;;;;;;;2.90;2.23;;;;;;;;;;6207778;28;20125;-78
2023/05/14 13:13:58;;;;;;;2.50;2.30;;;;;;;;;;6204483;28;20113;-78
2023/05/14 13:16:59;;;;;;;2.20;2.10;;;;;;;;;;6216319;28;20050;-79
2023/05/14 13:20:01;;;;;;;2.20;2.00;;;;;;;;;;6200175;28;20042;-78
2023/05/14 13:23:03;;;;;;;2.50;2.30;;;;;;;;;;6202245;28;20046;-78
2023/05/14 13:26:05;;;;;;;2.60;2.40;;;;;;;;;;6198385;28;20073;-76
2023/05/14 13:29:06;;;;;;;3.50;2.60;;;;;;;;;;6202295;28;20046;-75
2023/05/14 13:32:08;;;;;;;2.42;2.20;;;;;;;;;;6202614;28;20171;-78
2023/05/14 13:35:10;;;;;;;2.50;2.30;;;;;;;;;;6200775;28;20050;-79
2023/05/14 13:38:11;;;;;;;2.40;2.20;;;;;;;;;;6203660;28;20042;-78
2023/05/14 13:41:13;;;;;;;3.78;2.35;;;;;;;;;;6187678;28;20050;-77
2023/05/14 13:44:15;;;;;;;2.15;2.05;;;;;;;;;;6206348;28;20129;-78
2023/05/14 13:47:16;;;;;;;2.35;2.15;;;;;;;;;;6208163;28;20045;-77
2023/05/14 13:50:18;;;;;;;2.60;1.75;;;;;;;;;;6210916;28;20037;-79
2023/05/14 13:53:22;;;;;;;2.53;2.00;;;;;;;;;;6209846;28;20053;-78
2023/05/14 13:56:23;;;;;;;4.35;2.20;;;;;;;;;;6200602;28;20053;-78
2023/05/14 13:59:25;;;;;;;2.20;2.00;;;;;;;;;;6195995;28;20047;-78
2023/05/14 14:02:26;;;;;;;4.70;2.35;;;;;;;;;;6207911;28;20038;-77
2023/05/14 14:05:28;;;;;;;2.85;2.65;;;;;;;;;;6211170;28;20034;-77
2023/05/14 14:08:30;;;;;;;2.50;2.30;;;;;;;;;;6193803;28;20509;-78
2023/05/14 14:11:31;;;;;;;2.70;2.50;;;;;;;;;;6183980;28;20042;-76
2023/05/14 14:14:33;;;;;;;8.25;2.78;;;;;;;;;;6206945;28;20044;-78
2023/05/14 14:17:35;;;;;;;4.38;2.70;;;;;;;;;;6205102;28;20041;-77
2023/05/14 14:20:37;;;;;;;3.63;2.30;;;;;;;;;;6205339;28;20094;-77
2023/05/14 14:23:38;;;;;;;4.32;2.45;;;;;;;;;;6205737;28;20159;-77
2023/05/14 14:26:40;;;;;;;1.65;1.50;;;;;;;;;;6212536;28;20048;-77
2023/05/14 14:29:42;;;;;;;2.17;2.00;;;;;;;;;;6204513;28;20065;-77
2023/05/14 14:32:44;;;;;;;3.15;2.55;;;;;;;;;;6204093;28;20042;-78
2023/05/14 14:35:46;;;;;;;2.38;2.17;;;;;;;;;;6195943;28;20053;-78
2023/05/14 14:38:48;;;;;;;3.70;3.00;;;;;;;;;;6211665;28;20076;-76
2023/05/14 14:41:50;;;;;;;4.65;3.08;;;;;;;;;;6199169;28;20041;-77
2023/05/14 14:44:51;;;;;;;3.17;2.63;;;;;;;;;;6206412;28;20052;-77
2023/05/14 14:48:25;;;;;;;3.72;2.58;;;;;;;;;;6200491;28;20046;-77
2023/05/14 14:51:27;;;;;;;2.72;2.40;;;;;;;;;;6175329;28;20042;-77
2023/05/14 14:54:28;;;;;;;3.15;2.53;;;;;;;;;;6207321;28;20049;-77
2023/05/14 14:57:30;;;;;;;4.70;3.03;;;;;;;;;;6205292;28;20046;-78
2023/05/14 15:00:31;;;;;;;6.13;3.47;;;;;;;;;;6201580;28;20038;-78
2023/05/14 15:03:33;;;;;;;3.47;3.17;;;;;;;;;;6201173;28;20473;-77
2023/05/14 15:06:35;;;;;;;3.17;2.87;;;;;;;;;;6204849;28;20061;-77
2023/05/14 15:09:37;;;;;;;3.42;2.88;;;;;;;;;;6203039;28;20076;-79
2023/05/14 15:12:39;;;;;;;3.05;2.75;;;;;;;;;;6209703;28;20065;-78
2023/05/14 15:15:40;;;;;;;3.60;2.90;;;;;;;;;;6193429;28;20555;-76
2023/05/14 15:18:42;;;;;;;3.10;2.80;;;;;;;;;;6206291;28;20034;-76
2023/05/14 15:21:44;;;;;;;4.10;2.90;;;;;;;;;;6206368;28;20515;-78
2023/05/14 15:24:46;;;;;;;2.63;2.42;;;;;;;;;;6200097;28;20046;-78
2023/05/14 15:27:48;;;;;;;3.45;2.70;;;;;;;;;;6183722;28;20049;-77
2023/05/14 15:30:49;;;;;;;2.80;2.60;;;;;;;;;;6194491;28;20469;-78
2023/05/14 15:33:52;;;;;;;3.22;2.75;;;;;;;;;;6204610;28;20051;-78
2023/05/14 15:36:54;;;;;;;;;;;;;;;;;;6203828;28;20050;-78
2023/05/14 15:39:55;;;;;;;4.20;2.72;;;;;;;;;;6202525;28;19936;-77
2023/05/14 15:42:57;;;;;;;2.85;2.65;;;;;;;;;;6206632;28;20064;-77
2023/05/14 15:45:59;;;;;;;3.00;2.75;;;;;;;;;;6197438;28;20121;-78
2023/05/14 15:49:00;;;;;;;4.65;4.25;;;;;;;;;;6175886;28;20790;-79
2023/05/14 15:52:02;;;;;;;4.97;4.47;;;;;;;;;;6203641;28;20060;-76
2023/05/14 15:55:05;;;;;;;4.73;3.10;;;;;;;;;;6202831;28;20049;-76
2023/05/14 15:58:06;;;;;;;3.00;2.65;;;;;;;;;;6182563;28;20042;-76
2023/05/14 16:01:08;;;;;;;2.53;2.33;;;;;;;;;;6193236;28;20052;-77
2023/05/14 16:04:09;;;;;;;2.33;2.10;;;;;;;;;;6202130;28;20049;-78
2023/05/14 16:07:12;;;;;;;2.58;2.13;;;;;;;;;;6194762;28;20072;-76
2023/05/14 16:10:13;;;;;;;2.45;2.25;;;;;;;;;;6204167;28;20050;-77
2023/05/14 16:13:15;;;;;;;2.90;2.40;;;;;;;;;;6197599;28;20066;-77
2023/05/14 16:16:18;;;;;;;3.00;2.55;;;;;;;;;;6187956;28;20043;-77
2023/05/14 16:19:20;;;;;;;;;;;;;;;;;;6171008;28;20050;-77
2023/05/14 16:22:21;;;;;;;2.67;2.20;;;;;;;;;;6200381;28;19925;-77
2023/05/14 16:25:23;;;;;;;2.20;2.00;;;;;;;;;;6209811;28;20042;-77
2023/05/14 16:28:25;;;;;;;3.90;3.38;;;;;;;;;;6198886;28;20409;-77
2023/05/14 16:31:26;;;;;;;3.70;3.33;;;;;;;;;;6200482;28;20053;-77
2023/05/14 16:34:28;;;;;;;4.40;3.10;;;;;;;;;;6207360;28;20054;-78
2023/05/14 16:37:30;;;;;;;3.60;2.90;;;;;;;;;;6207935;28;20048;-77
2023/05/14 16:40:31;;;;;;;4.03;2.40;;;;;;;;;;6198468;28;20531;-78
2023/05/14 16:43:33;;;;;;;4.03;3.00;;;;;;;;;;6202799;28;20042;-78
2023/05/14 16:46:35;;;;;;;2.45;2.25;;;;;;;;;;6195536;28;20041;-78
2023/05/14 16:49:36;;;;;;;2.42;2.10;;;;;;;;;;6192458;28;20045;-79
2023/05/14 16:52:38;;;;;;;3.10;2.35;;;;;;;;;;6180601;28;20045;-77
2023/05/14 16:55:39;;;;;;;2.60;2.40;;;;;;;;;;6191934;28;20738;-77
2023/05/14 16:58:41;;;;;;;2.45;2.25;;;;;;;;;;6199721;28;20180;-78
2023/05/14 17:01:43;;;;;;;2.53;2.33;;;;;;;;;;6185788;28;20053;-78
2023/05/14 17:04:45;;;;;;;2.57;2.37;;;;;;;;;;6195935;28;20046;-77
2023/05/14 17:07:46;;;;;;;2.53;2.17;;;;;;;;;;6194408;28;20050;-78
2023/05/14 17:10:48;;;;;;;2.50;2.30;;;;;;;;;;6191587;28;20137;-77
2023/05/14 17:13:52;;;;;;;2.67;2.40;;;;;;;;;;6203805;28;20057;-78
2023/05/14 17:16:54;;;;;;;2.95;2.65;;;;;;;;;;6194336;28;20497;-77
2023/05/14 17:19:56;;;;;;;3.05;2.65;;;;;;;;;;6198723;28;20056;-77
2023/05/14 17:22:57;;;;;;;3.03;2.72;;;;;;;;;;6186108;28;20144;-78
2023/05/14 17:25:59;;;;;;;2.63;2.42;;;;;;;;;;6182623;28;20050;-78
2023/05/14 17:29:01;;;;;;;3.40;2.80;;;;;;;;;;6182038;28;20053;-77
2023/05/14 17:32:02;;;;;;;3.55;2.63;;;;;;;;;;6201159;28;20054;-77
2023/05/14 17:35:04;;;;;;;3.00;2.70;;;;;;;;;;6202761;28;20193;-76
2023/05/14 17:38:06;;;;;;;4.10;3.00;;;;;;;;;;6198451;28;20046;-77
2023/05/14 17:41:11;;;;;;;4.15;2.90;;;;;;;;;;6194582;28;20616;-77
2023/05/14 17:44:13;;;;;;;3.17;2.88;;;;;;;;;;6193549;28;20046;-77
2023/05/14 17:47:23;;;;;;;4.40;2.90;;;;;;;;;;6193861;28;20042;-77
2023/05/14 17:50:25;;;;;;;3.65;3.08;;;;;;;;;;6201616;28;20045;-77
2023/05/14 17:53:27;;;;;;;3.53;2.90;;;;;;;;;;6192826;28;20058;-77
2023/05/14 17:56:29;;;;;;;3.57;2.80;;;;;;;;;;6174673;28;20046;-77
2023/05/14 17:59:31;;;;;;;2.97;2.78;;;;;;;;;;6199906;28;20065;-78
2023/05/14 18:02:33;;;;;;;2.63;2.42;;;;;;;;;;6200401;28;20087;-78
2023/05/14 18:05:36;;;;;;;4.15;2.50;;;;;;;;;;6208615;28;20077;-77
2023/05/14 18:08:38;;;;;;;3.08;2.60;;;;;;;;;;6186811;28;20049;-76
2023/05/14 18:11:39;;;;;;;3.25;2.40;;;;;;;;;;6193720;28;20042;-76